Time;durP1;ratioP1;P1;durP2;ratioP2;P2;SDS_P1;SDS_P2;PMS_P1;PMS_P2;Temp;Humidity;BMP_temperature;BMP_pressure;BME280_temperature;BME280_humidity;BME280_pressure;Samples;Min_cycle;Max_cycle;Signal;HPM_P1;HPM_P2
2022/10/08 00:01:11;;;;;;;22.40;8.30;;;;;;;13.49;67.71;101142.44;5011055;28;20029;-73
2022/10/08 00:03:39;;;;;;;15.65;5.85;;;;;;;13.49;70.34;101132.06;5011005;28;20026;-71
2022/10/08 00:06:06;;;;;;;15.95;5.50;;;;;;;13.48;71.00;101133.75;5011131;28;20026;-70
2022/10/08 00:08:36;;;;;;;13.93;4.22;;;;;;;13.46;72.09;101125.06;5011098;28;20408;-73
2022/10/08 00:11:08;;;;;;;12.43;4.45;;;;;;;13.36;72.69;101122.94;5011084;28;20615;-71
2022/10/08 00:13:42;;;;;;;13.55;3.88;;;;;;;13.34;72.55;101124.56;5010921;28;20489;-71
2022/10/08 00:16:11;;;;;;;15.55;3.90;;;;;;;13.15;73.12;101125.63;5010897;28;20026;-71
2022/10/08 00:18:38;;;;;;;13.32;4.18;;;;;;;12.81;73.14;101133.00;5010973;28;20065;-71
2022/10/08 00:21:11;;;;;;;19.40;3.83;;;;;;;12.89;71.87;101125.53;5010867;28;20484;-71
2022/10/08 00:23:36;;;;;;;10.95;3.88;;;;;;;12.94;70.61;101113.63;5010639;28;20030;-71
2022/10/08 00:26:05;;;;;;;6.55;3.72;;;;;;;12.36;66.76;101078.56;5010863;28;20026;-71
2022/10/08 00:28:35;;;;;;;10.15;3.10;;;;;;;12.24;69.15;101121.28;5010492;28;20404;-72
2022/10/08 00:31:08;;;;;;;;;;;;;;;12.33;69.26;101114.72;5011491;28;20034;-69
2022/10/08 00:33:37;;;;;;;7.10;2.97;;;;;;;12.40;69.84;101115.00;5010679;28;19944;-71
2022/10/08 00:36:08;;;;;;;7.75;3.17;;;;;;;12.41;69.77;101110.69;5010708;28;20076;-72
2022/10/08 00:38:35;;;;;;;8.18;2.90;;;;;;;12.15;69.05;101097.63;5025829;28;20030;-70
2022/10/08 00:41:01;;;;;;;4.70;2.75;;;;;;;11.52;68.27;101054.44;5010355;28;20022;-68
2022/10/08 00:43:42;;;;;;;8.55;3.58;;;;;;;11.55;69.34;101110.59;5010682;28;20030;-71
2022/10/08 00:46:42;;;;;;;7.30;3.15;;;;;;;11.42;71.17;101104.00;5010792;28;20042;-73
2022/10/08 00:49:21;;;;;;;8.90;3.38;;;;;;;11.33;72.30;101078.63;4988327;28;20058;-74
2022/10/08 00:51:51;;;;;;;10.63;3.20;;;;;;;11.66;72.58;101104.16;4988737;28;20038;-75
2022/10/08 00:54:19;;;;;;;7.53;2.78;;;;;;;11.75;72.76;101091.66;4988600;28;20121;-71
2022/10/08 00:56:48;;;;;;;8.07;3.20;;;;;;;11.84;73.21;101103.19;4988685;28;20445;-71
2022/10/08 00:59:14;;;;;;;8.38;3.38;;;;;;;11.80;72.76;101090.13;4972199;28;20497;-72
2022/10/08 01:01:42;;;;;;;9.40;3.58;;;;;;;11.86;72.44;101096.38;4988367;28;20034;-71
2022/10/08 01:04:08;;;;;;;17.05;3.85;;;;;;;11.89;70.95;101092.22;4988621;28;20097;-71
2022/10/08 01:06:53;;;;;;;11.30;3.38;;;;;;;12.08;70.95;101098.19;4988557;28;20049;-71
2022/10/08 01:09:37;;;;;;;8.52;3.15;;;;;;;12.11;69.41;101067.22;4988433;28;20416;-72
2022/10/08 01:12:35;;;;;;;7.85;3.13;;;;;;;12.04;69.06;101039.38;4988320;28;20042;-71
2022/10/08 01:15:13;;;;;;;9.82;4.00;;;;;;;12.16;68.99;101081.25;4988423;28;20046;-71
2022/10/08 01:17:47;;;;;;;6.07;3.28;;;;;;;12.05;69.13;101083.41;4988475;28;20034;-68
2022/10/08 01:20:20;;;;;;;13.40;3.35;;;;;;;11.85;66.78;101077.41;4988516;28;20041;-68
2022/10/08 01:23:23;;;;;;;7.90;3.58;;;;;;;11.80;66.14;101073.72;4988200;28;20034;-74
2022/10/08 01:25:56;;;;;;;8.45;3.10;;;;;;;11.81;65.87;101070.31;4997517;28;20042;-71
2022/10/08 01:28:38;;;;;;;10.93;3.10;;;;;;;11.80;65.27;101058.19;5010694;28;20469;-75
2022/10/08 01:31:29;;;;;;;9.68;3.65;;;;;;;11.92;66.37;101060.41;5011608;28;20034;-70
2022/10/08 01:34:17;;;;;;;7.03;3.08;;;;;;;11.99;66.59;101065.06;5014046;28;20091;-71
2022/10/08 01:36:48;;;;;;;9.27;3.50;;;;;;;12.04;66.99;101066.13;5013822;28;20037;-70
2022/10/08 01:39:18;;;;;;;9.05;3.28;;;;;;;12.07;67.28;101066.22;5013822;28;20036;-70
2022/10/08 01:41:47;;;;;;;;;;;;;;;12.09;67.33;101059.41;5014290;28;20044;-70
2022/10/08 01:44:18;;;;;;;9.65;3.10;;;;;;;12.04;67.13;101055.75;5014190;28;19914;-70
2022/10/08 01:46:47;;;;;;;8.82;3.10;;;;;;;11.70;65.60;101017.25;5013786;28;20038;-68
2022/10/08 01:49:20;;;;;;;8.70;3.50;;;;;;;11.90;65.97;101062.03;5013360;28;20056;-75
2022/10/08 01:51:52;;;;;;;12.00;3.08;;;;;;;11.81;67.23;101060.84;5013488;28;20080;-73
2022/10/08 01:54:20;;;;;;;6.28;2.83;;;;;;;11.79;68.14;101057.31;5013472;28;20037;-70
2022/10/08 01:56:48;;;;;;;5.80;3.75;;;;;;;11.84;68.12;101059.19;5013521;28;20496;-70
2022/10/08 01:59:30;;;;;;;6.72;3.72;;;;;;;11.63;68.59;101026.47;5013449;28;20397;-70
2022/10/08 02:01:58;;;;;;;12.07;3.33;;;;;;;11.60;68.49;101015.97;5013290;28;20407;-70
2022/10/08 02:04:32;;;;;;;12.40;3.47;;;;;;;11.87;68.87;101062.78;5013283;28;20026;-71
2022/10/08 02:07:01;;;;;;;11.88;3.25;;;;;;;11.74;68.99;101060.50;5013365;28;20026;-71
2022/10/08 02:09:29;;;;;;;8.55;2.97;;;;;;;11.38;68.49;101020.25;5013202;28;20129;-71
2022/10/08 02:11:54;;;;;;;11.00;3.05;;;;;;;11.50;67.95;101053.50;5013354;28;20108;-71
2022/10/08 02:14:24;;;;;;;10.98;3.42;;;;;;;11.32;68.62;101051.00;5013524;28;20117;-72
2022/10/08 02:17:23;;;;;;;7.63;2.70;;;;;;;11.32;68.67;101057.06;5010929;28;20041;-73
2022/10/08 02:19:56;;;;;;;10.10;3.63;;;;;;;11.29;68.97;101044.03;4991051;28;20034;-69
2022/10/08 02:22:40;;;;;;;6.68;3.08;;;;;;;11.35;69.40;101063.19;4991115;28;20489;-72
2022/10/08 02:25:31;;;;;;;6.38;3.10;;;;;;;11.28;70.53;101062.06;4990725;28;20544;-71
2022/10/08 02:28:31;;;;;;;6.32;2.83;;;;;;;11.29;70.51;101056.03;4913602;29;20063;-71
2022/10/08 02:31:14;;;;;;;7.47;4.05;;;;;;;11.18;70.85;101058.19;4914051;29;20048;-71
2022/10/08 02:33:44;;;;;;;6.28;2.92;;;;;;;10.81;70.42;101018.66;4914064;29;20084;-71
2022/10/08 02:36:15;;;;;;;7.13;3.30;;;;;;;11.06;69.79;101065.38;4913906;29;20046;-71
2022/10/08 02:38:51;;;;;;;5.28;2.72;;;;;;;11.01;70.44;101070.34;4913922;29;20085;-70
2022/10/08 02:41:21;;;;;;;7.05;3.00;;;;;;;11.03;71.31;101073.88;4913738;29;20036;-71
2022/10/08 02:43:50;;;;;;;6.22;2.90;;;;;;;11.06;71.97;101061.09;4913828;29;20531;-69
2022/10/08 02:46:19;;;;;;;9.02;3.42;;;;;;;11.17;72.33;101059.00;4913759;29;20048;-72
2022/10/08 02:48:56;;;;;;;7.78;3.10;;;;;;;11.17;72.55;101053.81;4913780;29;20163;-70
2022/10/08 02:51:26;;;;;;;4.78;3.05;;;;;;;11.13;72.84;101070.00;4913720;29;20396;-70
2022/10/08 02:53:52;;;;;;;10.85;2.85;;;;;;;10.91;73.30;101063.00;4913706;29;20032;-68
2022/10/08 02:56:33;;;;;;;7.13;3.15;;;;;;;10.73;73.92;101074.25;4926190;29;20043;-70
2022/10/08 02:58:59;;;;;;;7.63;3.20;;;;;;;10.45;75.64;101080.69;4951604;29;20039;-70
2022/10/08 03:01:32;;;;;;;6.10;3.30;;;;;;;10.22;74.08;101053.78;4951548;29;20090;-71
2022/10/08 03:04:07;;;;;;;6.25;3.30;;;;;;;10.17;74.05;101083.66;4961871;28;20034;-70
2022/10/08 03:06:34;;;;;;;8.65;3.45;;;;;;;9.56;75.51;101035.97;5012138;28;20036;-70
2022/10/08 03:09:02;;;;;;;6.93;3.25;;;;;;;9.57;76.46;101088.41;5012076;28;20045;-74
2022/10/08 03:11:30;;;;;;;10.07;3.35;;;;;;;9.70;76.66;101081.34;4993515;28;20096;-70
2022/10/08 03:13:58;;;;;;;11.95;3.53;;;;;;;9.64;76.09;101026.91;4992452;28;20053;-70
2022/10/08 03:16:31;;;;;;;7.90;3.10;;;;;;;9.88;76.25;101081.41;4992450;28;20027;-70
2022/10/08 03:18:58;;;;;;;6.82;3.30;;;;;;;9.91;76.22;101080.66;4992354;28;20034;-69
2022/10/08 03:21:26;;;;;;;7.65;2.90;;;;;;;10.09;76.29;101072.94;4992109;28;20034;-70
2022/10/08 03:23:52;;;;;;;7.88;3.30;;;;;;;10.26;75.66;101078.91;4992482;28;20113;-69
2022/10/08 03:26:18;;;;;;;6.40;3.08;;;;;;;10.15;74.93;101028.50;4992294;28;20113;-69
2022/10/08 03:28:43;;;;;;;6.18;3.50;;;;;;;10.48;73.58;101072.22;4992076;28;20022;-68
2022/10/08 03:31:09;;;;;;;8.85;3.30;;;;;;;10.58;72.93;101069.28;4991858;28;20085;-70
2022/10/08 03:33:34;;;;;;;10.77;3.13;;;;;;;10.55;73.08;101068.25;4992025;28;20022;-70
2022/10/08 03:36:00;;;;;;;11.77;3.47;;;;;;;10.62;72.99;101072.88;4992445;28;20105;-71
2022/10/08 03:38:25;;;;;;;13.68;3.85;;;;;;;10.66;72.84;101075.66;4992122;28;20026;-71
2022/10/08 03:40:57;;;;;;;8.40;3.70;;;;;;;10.74;72.38;101078.63;4992076;28;20026;-71
2022/10/08 03:43:23;;;;;;;10.77;3.60;;;;;;;10.68;72.04;101058.53;4991878;28;20065;-71
2022/10/08 03:45:52;;;;;;;8.88;3.35;;;;;;;10.79;71.78;101077.13;4991891;28;20715;-70
2022/10/08 03:48:19;;;;;;;7.25;3.30;;;;;;;10.76;71.82;101071.81;4989463;28;20104;-69
2022/10/08 03:51:06;;;;;;;5.55;3.20;;;;;;;10.78;71.96;101066.69;4991696;28;20030;-68
2022/10/08 03:53:34;;;;;;;11.90;3.67;;;;;;;10.60;70.32;101061.59;4991302;28;20097;-70
2022/10/08 03:56:04;;;;;;;5.93;3.00;;;;;;;10.61;68.91;101077.16;4998130;28;20034;-71
2022/10/08 03:58:33;;;;;;;9.90;3.38;;;;;;;10.61;69.82;101079.72;5011202;28;20033;-70
2022/10/08 04:01:14;;;;;;;8.27;3.80;;;;;;;10.58;71.07;101074.44;5010648;28;20443;-68
2022/10/08 04:03:40;;;;;;;6.72;3.53;;;;;;;10.15;71.14;101029.38;5011376;28;20493;-69
2022/10/08 04:06:06;;;;;;;8.45;3.60;;;;;;;10.07;72.60;101022.97;5010840;28;20026;-69
2022/10/08 04:08:33;;;;;;;11.73;3.78;;;;;;;10.30;72.40;101067.91;5010957;28;20099;-69
2022/10/08 04:11:03;;;;;;;9.45;3.55;;;;;;;10.28;72.03;101059.25;5011079;28;20097;-69
2022/10/08 04:13:29;;;;;;;13.20;4.22;;;;;;;10.41;71.53;101055.56;5010540;28;20026;-69
2022/10/08 04:16:02;;;;;;;9.82;3.63;;;;;;;10.55;71.66;101076.84;5010970;28;20117;-69
2022/10/08 04:18:28;;;;;;;16.35;3.92;;;;;;;10.42;72.10;101074.50;5010995;28;20057;-69
2022/10/08 04:21:04;;;;;;;8.73;3.60;;;;;;;10.46;72.35;101069.56;5011037;28;20088;-69
2022/10/08 04:23:31;;;;;;;7.00;4.00;;;;;;;10.51;72.80;101070.66;5010814;28;20040;-69
2022/10/08 04:25:57;;;;;;;8.52;4.38;;;;;;;10.51;72.66;101073.25;5010798;28;20030;-69
2022/10/08 04:28:22;;;;;;;10.38;4.97;;;;;;;10.29;73.22;101048.13;5010888;28;20103;-69
2022/10/08 04:30:54;;;;;;;8.35;4.60;;;;;;;10.26;74.66;101067.72;5010749;28;20026;-68
2022/10/08 04:33:19;;;;;;;11.32;4.32;;;;;;;10.35;74.96;101070.72;5010969;28;20036;-68
2022/10/08 04:35:44;;;;;;;8.45;4.38;;;;;;;9.95;75.95;101035.28;5010771;28;20508;-69
2022/10/08 04:38:10;;;;;;;9.05;4.82;;;;;;;9.97;77.11;101059.44;5010961;28;20083;-69
2022/10/08 04:40:35;;;;;;;13.32;5.22;;;;;;;10.06;76.88;101056.44;5010798;28;20026;-66
2022/10/08 04:43:01;;;;;;;12.25;5.00;;;;;;;10.22;76.53;101051.22;5010978;28;20045;-69
2022/10/08 04:45:26;;;;;;;10.98;4.63;;;;;;;10.25;76.31;101053.91;5010782;28;20072;-69
2022/10/08 04:47:51;;;;;;;12.93;5.07;;;;;;;10.36;75.77;101049.31;5010752;28;20054;-69
2022/10/08 04:50:17;;;;;;;12.85;5.65;;;;;;;10.40;75.58;101058.94;5010877;28;20115;-69
2022/10/08 04:52:42;;;;;;;14.63;4.47;;;;;;;10.48;74.34;101061.88;5010896;28;20485;-69
2022/10/08 04:55:08;;;;;;;33.15;19.33;;;;;;;10.37;72.68;101061.41;5010842;28;20033;-66
2022/10/08 04:57:33;;;;;;;17.67;6.28;;;;;;;10.27;72.40;101062.63;5010824;28;20519;-69
2022/10/08 04:59:59;;;;;;;11.18;5.57;;;;;;;9.98;72.76;101019.94;5010669;28;20108;-69
2022/10/08 05:02:24;;;;;;;10.85;5.07;;;;;;;9.87;73.85;101022.91;5010563;28;20488;-69
2022/10/08 05:04:49;;;;;;;12.35;5.18;;;;;;;10.00;74.17;101034.69;5010961;28;20133;-69
2022/10/08 05:07:15;;;;;;;17.27;5.32;;;;;;;10.31;74.46;101069.69;5014485;28;20033;-70
2022/10/08 05:09:40;;;;;;;13.95;5.85;;;;;;;10.13;74.98;101023.28;5014426;28;20489;-69
2022/10/08 05:12:06;;;;;;;13.85;5.95;;;;;;;10.39;74.64;101080.41;5014673;28;20088;-68
2022/10/08 05:14:31;;;;;;;11.85;5.78;;;;;;;10.42;74.73;101080.56;5014606;28;20028;-69
2022/10/08 05:16:56;;;;;;;8.32;5.22;;;;;;;10.49;72.75;101081.72;5014469;28;20092;-69
2022/10/08 05:19:22;;;;;;;8.15;5.20;;;;;;;10.36;72.13;101036.41;5014372;28;20390;-69
2022/10/08 05:21:47;;;;;;;17.48;6.05;;;;;;;10.73;72.85;101079.44;5014193;28;20439;-69
2022/10/08 05:24:13;;;;;;;10.63;6.22;;;;;;;10.81;72.95;101088.41;5014096;28;20455;-69
2022/10/08 05:26:39;;;;;;;9.18;5.55;;;;;;;10.90;73.65;101087.06;5013023;28;20084;-70
2022/10/08 05:29:05;;;;;;;13.30;5.97;;;;;;;10.96;73.62;101090.78;5013592;28;20030;-69
2022/10/08 05:31:32;;;;;;;13.02;5.97;;;;;;;11.04;74.07;101087.69;5010902;28;20030;-69
2022/10/08 05:33:58;;;;;;;14.15;6.25;;;;;;;11.14;73.92;101090.75;5013751;28;20022;-68
2022/10/08 05:36:29;;;;;;;14.50;6.10;;;;;;;11.28;73.75;101093.94;5013606;28;20022;-69
2022/10/08 05:38:55;;;;;;;10.98;6.18;;;;;;;11.26;73.71;101099.84;5011195;28;20026;-69
2022/10/08 05:41:26;;;;;;;11.52;5.70;;;;;;;11.39;73.33;101102.19;5012690;28;20116;-69
2022/10/08 05:43:56;;;;;;;10.10;5.72;;;;;;;11.42;73.07;101091.94;5013118;28;20516;-69
2022/10/08 05:46:26;;;;;;;10.43;6.50;;;;;;;11.56;72.40;101095.13;5011951;28;20037;-69
2022/10/08 05:48:53;;;;;;;8.90;5.97;;;;;;;11.65;72.34;101107.56;5026292;28;20065;-68
2022/10/08 05:51:19;;;;;;;9.70;6.03;;;;;;;11.75;72.12;101098.50;5012366;28;20026;-70
2022/10/08 05:53:46;;;;;;;12.02;6.10;;;;;;;11.93;72.05;101108.75;5013329;28;20507;-69
2022/10/08 05:56:14;;;;;;;12.98;5.80;;;;;;;12.01;71.30;101111.69;5014076;28;20096;-69
2022/10/08 05:58:41;;;;;;;12.80;5.95;;;;;;;12.11;71.74;101122.50;5012848;28;20437;-69
2022/10/08 06:01:15;;;;;;;13.63;5.70;;;;;;;12.08;72.26;101122.34;5013451;28;20217;-69
2022/10/08 06:03:41;;;;;;;12.57;5.70;;;;;;;12.18;71.79;101102.91;5012682;28;20036;-69
2022/10/08 06:06:09;;;;;;;11.43;5.22;;;;;;;12.49;70.77;101123.97;5008287;28;20125;-70
2022/10/08 06:08:35;;;;;;;11.93;6.15;;;;;;;12.45;70.58;101118.66;4997871;28;20062;-73
2022/10/08 06:11:03;;;;;;;14.10;7.30;;;;;;;12.18;71.38;101122.75;4996705;28;20046;-70
2022/10/08 06:13:28;;;;;;;13.02;7.85;;;;;;;12.32;70.91;101116.41;4998746;28;20034;-70
2022/10/08 06:15:58;;;;;;;14.57;6.90;;;;;;;12.38;70.20;101085.56;5012665;28;20030;-70
2022/10/08 06:18:26;;;;;;;15.73;8.27;;;;;;;12.75;70.00;101117.22;5015618;28;20030;-71
2022/10/08 06:20:53;;;;;;;23.13;9.70;;;;;;;12.74;70.28;101111.16;5012660;28;20066;-71
2022/10/08 06:23:21;;;;;;;19.25;9.10;;;;;;;12.89;70.18;101112.56;5012677;28;20055;-71
2022/10/08 06:25:46;;;;;;;15.20;9.05;;;;;;;13.03;69.69;101108.75;5012958;28;20038;-71
2022/10/08 06:28:12;;;;;;;20.80;12.88;;;;;;;13.19;69.35;101110.22;5041712;28;20476;-72
2022/10/08 06:30:41;;;;;;;20.48;11.93;;;;;;;13.37;68.90;101117.81;4998765;28;20030;-71
2022/10/08 06:33:09;;;;;;;16.42;8.25;;;;;;;13.51;67.79;101112.25;5000532;28;20030;-73
2022/10/08 06:35:35;;;;;;;15.00;7.50;;;;;;;13.63;67.54;101120.44;5001827;28;20501;-71
2022/10/08 06:38:01;;;;;;;13.75;8.13;;;;;;;13.68;67.77;101111.13;4994603;28;20050;-75
2022/10/08 06:40:30;;;;;;;13.75;7.80;;;;;;;13.70;68.12;101105.97;5012258;28;20034;-72
2022/10/08 06:42:56;;;;;;;21.52;8.00;;;;;;;13.83;67.99;101102.09;5012257;28;20112;-74
2022/10/08 06:45:21;;;;;;;19.42;8.82;;;;;;;14.00;67.34;101102.66;5012501;28;20400;-74
2022/10/08 06:47:48;;;;;;;14.15;8.35;;;;;;;13.98;67.44;101109.50;5042880;28;20496;-72
2022/10/08 06:50:13;;;;;;;12.60;7.30;;;;;;;14.12;67.46;101113.44;4998055;28;20026;-73
2022/10/08 06:52:39;;;;;;;16.23;8.93;;;;;;;14.29;67.39;101108.78;5000428;28;20040;-73
2022/10/08 06:55:04;;;;;;;16.55;9.93;;;;;;;14.53;66.88;101115.63;5005914;28;20028;-70
2022/10/08 06:57:30;;;;;;;16.35;8.27;;;;;;;14.67;67.16;101113.47;5008058;28;20038;-74
2022/10/08 06:59:57;;;;;;;15.68;8.25;;;;;;;14.81;66.66;101106.06;4997005;28;20026;-73
2022/10/08 07:02:23;;;;;;;14.38;7.47;;;;;;;14.88;66.21;101103.69;5010217;28;20044;-70
2022/10/08 07:04:49;;;;;;;17.15;7.40;;;;;;;15.02;65.78;101100.63;5011786;28;20500;-70
2022/10/08 07:07:14;;;;;;;13.57;6.90;;;;;;;15.23;65.76;101102.97;5011808;28;20030;-73
2022/10/08 07:09:40;;;;;;;15.93;6.90;;;;;;;15.27;65.75;101070.97;5011696;28;20034;-71
2022/10/08 07:12:05;;;;;;;15.57;7.13;;;;;;;15.68;65.44;101099.81;5011690;28;20083;-69
2022/10/08 07:14:30;;;;;;;12.73;6.93;;;;;;;15.83;64.38;101103.72;5011628;28;20060;-73
2022/10/08 07:16:56;;;;;;;11.45;5.80;;;;;;;15.92;64.34;101103.94;5018606;28;20030;-71
2022/10/08 07:19:22;;;;;;;9.20;5.60;;;;;;;16.11;63.94;101100.09;5011407;28;20025;-73
2022/10/08 07:21:48;;;;;;;12.07;6.50;;;;;;;16.38;64.18;101101.56;5011516;28;20036;-71
2022/10/08 07:24:13;;;;;;;13.73;6.80;;;;;;;16.42;62.04;101087.75;5011720;28;20022;-71
2022/10/08 07:26:39;;;;;;;11.18;5.85;;;;;;;16.59;62.13;101101.16;5011267;28;20034;-73
2022/10/08 07:29:07;;;;;;;18.48;6.93;;;;;;;16.83;60.79;101089.50;5010937;28;20033;-73
2022/10/08 07:31:37;;;;;;;17.20;5.85;;;;;;;17.01;60.50;101085.56;5010806;28;20037;-71
2022/10/08 07:34:05;;;;;;;9.68;5.57;;;;;;;17.24;59.45;101089.50;5011723;28;20121;-69
2022/10/08 07:36:31;;;;;;;13.30;5.78;;;;;;;17.39;59.50;101075.00;5011646;28;20587;-73
2022/10/08 07:39:00;;;;;;;13.88;6.00;;;;;;;17.55;59.41;101082.25;5011625;28;20041;-73
2022/10/08 07:41:27;;;;;;;12.55;7.25;;;;;;;17.66;58.48;101085.06;5011051;28;20030;-74
2022/10/08 07:43:54;;;;;;;8.48;5.50;;;;;;;17.69;58.93;101076.41;5010894;28;20042;-72
2022/10/08 07:46:20;;;;;;;10.90;5.72;;;;;;;17.83;58.72;101080.16;5011518;28;20033;-73
2022/10/08 07:48:46;;;;;;;15.52;5.70;;;;;;;17.88;58.39;101072.38;5011276;28;20064;-75
2022/10/08 07:51:14;;;;;;;9.70;5.22;;;;;;;18.01;58.55;101078.72;5011288;28;20396;-71
2022/10/08 07:53:40;;;;;;;10.98;4.65;;;;;;;18.00;57.57;101043.84;5010942;28;20540;-73
2022/10/08 07:56:07;;;;;;;13.98;5.30;;;;;;;18.20;57.48;101056.38;5010642;28;20501;-73
2022/10/08 07:58:33;;;;;;;7.10;4.47;;;;;;;18.41;57.02;101069.72;5011028;28;20034;-73
2022/10/08 08:01:00;;;;;;;9.35;4.45;;;;;;;18.46;59.26;101061.09;5010906;28;20037;-70
2022/10/08 08:03:26;;;;;;;5.45;3.72;;;;;;;18.56;56.71;101069.06;5010733;28;20037;-72
2022/10/08 08:05:52;;;;;;;7.18;4.22;;;;;;;18.73;56.86;101071.06;5011208;28;20164;-72
2022/10/08 08:08:25;;;;;;;7.20;4.60;;;;;;;18.82;57.80;101060.69;5010664;28;20105;-73
2022/10/08 08:11:01;;;;;;;7.15;4.70;;;;;;;19.00;56.30;101056.56;5010749;28;20599;-73
2022/10/08 08:13:30;;;;;;;7.43;4.65;;;;;;;19.04;56.90;101032.19;5010673;28;20520;-74
2022/10/08 08:16:01;;;;;;;8.93;3.95;;;;;;;19.29;54.24;101045.53;5010909;28;20024;-72
2022/10/08 08:18:31;;;;;;;6.13;3.65;;;;;;;19.37;54.99;101046.50;5010724;28;20096;-72
2022/10/08 08:20:58;;;;;;;9.63;4.43;;;;;;;19.36;55.27;101043.00;5010499;28;20547;-73
2022/10/08 08:23:28;;;;;;;6.85;3.75;;;;;;;19.32;55.10;101022.88;5010545;28;20468;-73
2022/10/08 08:25:53;;;;;;;5.50;4.00;;;;;;;19.51;53.67;101047.50;5010520;28;20033;-72
2022/10/08 08:28:19;;;;;;;7.70;3.65;;;;;;;19.66;55.19;101038.03;5010471;28;20044;-75
2022/10/08 08:30:44;;;;;;;6.18;3.83;;;;;;;19.79;52.64;101041.63;5010520;28;20030;-72
2022/10/08 08:33:09;;;;;;;12.13;3.95;;;;;;;19.98;51.85;101038.31;5010285;28;20022;-72
2022/10/08 08:35:35;;;;;;;8.10;4.05;;;;;;;20.09;54.73;101034.88;5010620;28;20030;-69
2022/10/08 08:38:00;;;;;;;5.68;3.47;;;;;;;20.11;53.28;101023.56;5010044;28;20109;-68
2022/10/08 08:40:28;;;;;;;5.05;3.30;;;;;;;20.31;51.78;101025.41;5010617;28;20516;-73
2022/10/08 08:42:55;;;;;;;5.47;3.17;;;;;;;20.32;53.33;101019.31;5010414;28;20026;-72
2022/10/08 08:45:27;;;;;;;5.43;3.63;;;;;;;20.31;49.51;101021.06;5010657;28;20029;-73
2022/10/08 08:48:01;;;;;;;6.25;3.70;;;;;;;20.36;50.10;101019.34;5010377;28;20057;-76
2022/10/08 08:50:35;;;;;;;7.07;3.70;;;;;;;20.45;50.96;101010.66;5010287;28;20025;-73
2022/10/08 08:53:02;;;;;;;6.53;3.38;;;;;;;20.62;48.48;101004.59;5010309;28;20026;-72
2022/10/08 08:55:37;;;;;;;7.00;3.67;;;;;;;20.77;49.75;101009.94;5010410;28;20064;-73
2022/10/08 08:58:34;;;;;;;5.95;3.80;;;;;;;20.87;48.57;101004.72;5010521;28;20499;-75
2022/10/08 09:01:09;;;;;;;7.90;3.30;;;;;;;21.05;47.79;100999.50;5009787;28;20028;-70
2022/10/08 09:03:42;;;;;;;4.38;3.13;;;;;;;21.23;47.13;101000.41;5010297;28;20022;-72
2022/10/08 09:06:13;;;;;;;4.82;3.17;;;;;;;21.42;48.36;100993.41;5010370;28;20057;-74
2022/10/08 09:08:47;;;;;;;6.05;3.33;;;;;;;21.30;46.24;100968.03;5009912;28;20029;-73
2022/10/08 09:11:15;;;;;;;4.75;3.17;;;;;;;21.19;47.57;100989.03;5010168;28;20104;-73
2022/10/08 09:13:46;;;;;;;4.95;3.10;;;;;;;21.31;46.07;100975.91;5009887;28;20440;-72
2022/10/08 09:16:14;;;;;;;7.95;3.28;;;;;;;21.44;43.56;100970.66;5040979;28;20041;-72
2022/10/08 09:18:43;;;;;;;5.55;2.92;;;;;;;21.60;44.82;100961.06;5010159;28;20025;-72
2022/10/08 09:21:10;;;;;;;5.78;3.20;;;;;;;21.73;43.00;100968.06;5009565;28;20107;-72
2022/10/08 09:23:35;;;;;;;8.68;3.28;;;;;;;21.82;44.30;100961.91;5009750;28;20038;-75
2022/10/08 09:26:07;;;;;;;6.72;3.28;;;;;;;21.74;46.17;100954.03;5009665;28;20109;-72
2022/10/08 09:28:41;;;;;;;4.55;3.20;;;;;;;21.84;44.71;100959.28;5010069;28;20123;-75
2022/10/08 09:32:00;;;;;;;8.20;3.13;;;;;;;22.02;43.29;100948.72;5010028;28;20667;-72
2022/10/08 09:34:26;;;;;;;9.40;3.13;;;;;;;22.03;44.28;100953.13;5027083;28;20037;-72
2022/10/08 09:37:01;;;;;;;9.00;3.55;;;;;;;21.33;44.61;100937.41;4986441;28;20432;-75
2022/10/08 09:39:30;;;;;;;16.27;5.00;;;;;;;21.26;45.90;100903.25;5027136;28;20021;-72
2022/10/08 09:42:08;;;;;;;10.63;4.22;;;;;;;21.79;44.57;100944.41;5027169;28;20527;-73
2022/10/08 09:44:51;;;;;;;5.05;3.40;;;;;;;21.66;44.88;100932.16;5013699;28;20615;-72
2022/10/08 09:47:18;;;;;;;15.18;6.82;;;;;;;21.86;44.42;100921.59;5026886;28;20072;-75
2022/10/08 09:49:48;;;;;;;6.57;3.53;;;;;;;21.94;44.19;100893.56;5026939;28;20104;-72
2022/10/08 09:52:22;;;;;;;7.65;3.40;;;;;;;22.19;44.46;100896.06;5028235;28;20643;-69
2022/10/08 09:54:53;;;;;;;4.95;3.35;;;;;;;22.52;42.25;100906.44;5030805;28;20049;-70
2022/10/08 09:57:20;;;;;;;14.95;11.18;;;;;;;22.62;43.65;100911.66;5013608;28;20512;-69
2022/10/08 10:00:06;;;;;;;5.30;3.17;;;;;;;22.60;43.58;100915.19;5030638;28;20091;-70
2022/10/08 10:02:38;;;;;;;12.38;3.40;;;;;;;22.50;45.53;100902.97;5013758;28;20434;-70
2022/10/08 10:05:06;;;;;;;6.97;3.35;;;;;;;22.51;44.56;100904.72;5014181;28;20040;-72
2022/10/08 10:07:44;;;;;;;5.72;3.25;;;;;;;21.77;43.70;100877.81;5027640;28;20045;-71
2022/10/08 10:10:29;;;;;;;6.03;3.08;;;;;;;21.92;45.34;100894.41;5012031;28;20037;-71
2022/10/08 10:13:32;;;;;;;6.82;3.45;;;;;;;22.22;45.83;100887.28;5013155;28;20026;-71
2022/10/08 10:16:03;;;;;;;6.97;3.15;;;;;;;22.44;45.59;100883.72;5028643;28;20103;-71
2022/10/08 10:18:37;;;;;;;7.00;4.00;;;;;;;22.67;44.77;100872.16;5029272;28;20029;-68
2022/10/08 10:21:12;;;;;;;6.50;4.25;;;;;;;23.02;44.41;100884.19;5029549;28;20034;-71
2022/10/08 10:24:07;;;;;;;4.97;3.83;;;;;;;22.83;42.72;100843.97;5029321;28;20029;-71
2022/10/08 10:26:37;;;;;;;6.63;3.40;;;;;;;23.00;43.29;100853.50;4970315;28;20077;-69
2022/10/08 10:29:33;;;;;;;6.30;3.72;;;;;;;23.21;42.55;100868.28;4970619;28;20042;-69
2022/10/08 10:32:23;;;;;;;6.32;3.40;;;;;;;23.35;40.13;100863.75;4912841;29;20067;-72
2022/10/08 10:34:58;;;;;;;6.50;3.50;;;;;;;23.50;40.39;100835.47;4912874;29;20103;-70
2022/10/08 10:37:34;;;;;;;5.60;3.30;;;;;;;23.76;42.11;100851.00;4913034;29;20062;-72
2022/10/08 10:40:07;;;;;;;4.20;3.00;;;;;;;23.87;40.92;100851.75;4912632;29;20072;-71
2022/10/08 10:42:42;;;;;;;7.55;3.10;;;;;;;23.57;39.87;100803.78;4912767;29;20047;-72
2022/10/08 10:45:13;;;;;;;5.38;3.25;;;;;;;23.54;40.44;100843.34;4912750;29;20909;-71
2022/10/08 10:47:39;;;;;;;6.65;3.05;;;;;;;23.59;39.92;100835.41;4913142;29;20040;-71
2022/10/08 10:50:12;;;;;;;7.18;3.80;;;;;;;23.23;41.07;100830.50;4912861;29;20100;-76
2022/10/08 10:53:07;;;;;;;4.20;3.05;;;;;;;23.59;40.40;100830.13;4904081;29;20047;-71
2022/10/08 10:55:38;;;;;;;6.55;4.05;;;;;;;23.94;41.20;100827.97;4893790;29;20161;-69
2022/10/08 10:58:12;;;;;;;6.38;4.10;;;;;;;24.15;39.21;100824.19;4893893;29;20053;-71
2022/10/08 11:00:50;;;;;;;7.72;4.63;;;;;;;24.30;38.54;100825.72;4893921;29;20069;-67
2022/10/08 11:03:16;;;;;;;5.40;3.70;;;;;;;24.24;40.59;100816.16;4937628;28;20051;-70
2022/10/08 11:05:46;;;;;;;7.22;3.53;;;;;;;24.33;39.52;100812.50;4990002;28;20101;-70
2022/10/08 11:08:51;;;;;;;4.68;3.15;;;;;;;24.36;38.08;100779.03;4995776;28;20117;-70
2022/10/08 11:11:27;;;;;;;8.40;3.63;;;;;;;24.44;38.71;100807.06;5011764;28;20025;-71
2022/10/08 11:13:55;;;;;;;5.00;3.63;;;;;;;24.06;39.12;100768.03;5011917;28;20033;-70
2022/10/08 11:16:46;;;;;;;8.35;4.75;;;;;;;24.15;39.22;100800.44;5011756;28;20104;-70
2022/10/08 11:19:50;;;;;;;6.35;5.20;;;;;;;24.38;39.23;100789.56;5011688;28;20037;-72
2022/10/08 11:22:16;;;;;;;8.35;5.47;;;;;;;24.55;40.10;100786.66;5009461;28;20037;-71
2022/10/08 11:25:03;;;;;;;8.63;3.58;;;;;;;24.34;38.82;100786.09;5011293;28;20393;-70
2022/10/08 11:27:46;;;;;;;7.38;3.47;;;;;;;24.36;38.64;100772.88;4992288;28;20416;-72
2022/10/08 11:32:58;;;;;;;8.95;4.15;;;;;;;24.30;37.86;100763.28;5012844;23;20058;-71
2022/10/08 11:35:33;;;;;;;5.85;3.17;;;;;;;24.17;38.25;100736.22;4983102;28;20040;-71
2022/10/08 11:38:24;;;;;;;6.88;3.47;;;;;;;24.44;36.97;100755.16;4987740;28;20038;-71
2022/10/08 11:41:24;;;;;;;6.32;3.60;;;;;;;24.70;38.66;100760.03;4991072;28;20033;-68
2022/10/08 11:43:58;;;;;;;6.25;3.30;;;;;;;24.62;38.81;100740.75;4991524;28;20030;-70